sensor_id;sensor_type;location;lat;lon;timestamp;P1;durP1;ratioP1;P2;durP2;ratioP2
12947;SDS011;6539;49.476;8.484;2022-12-18T00:01:29;48.47;;;24.73;;
12947;SDS011;6539;49.476;8.484;2022-12-18T00:04:01;46.03;;;23.23;;
12947;SDS011;6539;49.476;8.484;2022-12-18T00:06:40;46.03;;;22.57;;
12947;SDS011;6539;49.476;8.484;2022-12-18T00:09:06;47.67;;;23.63;;
12947;SDS011;6539;49.476;8.484;2022-12-18T00:11:32;49.53;;;24.07;;
12947;SDS011;6539;49.476;8.484;2022-12-18T00:14:00;49.57;;;23.67;;
12947;SDS011;6539;49.476;8.484;2022-12-18T00:16:26;44.53;;;22.73;;
12947;SDS011;6539;49.476;8.484;2022-12-18T00:18:55;43.87;;;22.67;;
12947;SDS011;6539;49.476;8.484;2022-12-18T00:21:27;47.07;;;23.70;;
12947;SDS011;6539;49.476;8.484;2022-12-18T00:23:54;48.97;;;22.63;;
12947;SDS011;6539;49.476;8.484;2022-12-18T00:26:23;45.77;;;22.50;;
12947;SDS011;6539;49.476;8.484;2022-12-18T00:28:57;42.70;;;23.10;;
12947;SDS011;6539;49.476;8.484;2022-12-18T00:31:39;45.80;;;23.43;;
12947;SDS011;6539;49.476;8.484;2022-12-18T00:34:09;47.80;;;22.93;;
12947;SDS011;6539;49.476;8.484;2022-12-18T00:36:39;49.93;;;24.17;;
12947;SDS011;6539;49.476;8.484;2022-12-18T00:39:09;47.13;;;24.10;;
12947;SDS011;6539;49.476;8.484;2022-12-18T00:41:40;45.67;;;23.07;;
12947;SDS011;6539;49.476;8.484;2022-12-18T00:44:24;46.30;;;23.93;;
12947;SDS011;6539;49.476;8.484;2022-12-18T00:46:50;50.63;;;25.20;;
12947;SDS011;6539;49.476;8.484;2022-12-18T00:49:17;48.27;;;25.30;;
12947;SDS011;6539;49.476;8.484;2022-12-18T00:51:44;49.80;;;25.37;;
12947;SDS011;6539;49.476;8.484;2022-12-18T00:54:16;54.27;;;25.07;;
12947;SDS011;6539;49.476;8.484;2022-12-18T00:56:42;49.13;;;23.70;;
12947;SDS011;6539;49.476;8.484;2022-12-18T00:59:08;46.00;;;24.97;;
12947;SDS011;6539;49.476;8.484;2022-12-18T01:01:34;51.63;;;24.43;;
12947;SDS011;6539;49.476;8.484;2022-12-18T01:04:02;50.17;;;24.13;;
12947;SDS011;6539;49.476;8.484;2022-12-18T01:06:29;46.83;;;23.50;;
12947;SDS011;6539;49.476;8.484;2022-12-18T01:08:57;40.63;;;22.33;;
12947;SDS011;6539;49.476;8.484;2022-12-18T01:11:23;50.23;;;25.00;;
12947;SDS011;6539;49.476;8.484;2022-12-18T01:13:49;39.30;;;23.20;;
12947;SDS011;6539;49.476;8.484;2022-12-18T01:16:17;42.23;;;21.83;;
12947;SDS011;6539;49.476;8.484;2022-12-18T01:18:46;42.23;;;22.70;;
12947;SDS011;6539;49.476;8.484;2022-12-18T01:21:13;48.53;;;23.27;;
12947;SDS011;6539;49.476;8.484;2022-12-18T01:23:41;46.47;;;23.10;;
12947;SDS011;6539;49.476;8.484;2022-12-18T01:26:16;43.93;;;21.87;;
12947;SDS011;6539;49.476;8.484;2022-12-18T01:28:44;48.73;;;24.33;;
12947;SDS011;6539;49.476;8.484;2022-12-18T01:33:45;46.07;;;23.67;;
12947;SDS011;6539;49.476;8.484;2022-12-18T01:36:20;48.43;;;23.97;;
12947;SDS011;6539;49.476;8.484;2022-12-18T01:38:48;45.07;;;23.27;;
12947;SDS011;6539;49.476;8.484;2022-12-18T01:41:16;45.97;;;24.20;;
12947;SDS011;6539;49.476;8.484;2022-12-18T01:43:47;46.33;;;22.67;;
12947;SDS011;6539;49.476;8.484;2022-12-18T01:46:25;51.83;;;23.90;;
12947;SDS011;6539;49.476;8.484;2022-12-18T01:48:53;51.67;;;24.10;;
12947;SDS011;6539;49.476;8.484;2022-12-18T01:51:26;52.80;;;24.87;;
12947;SDS011;6539;49.476;8.484;2022-12-18T01:53:55;46.13;;;23.80;;
12947;SDS011;6539;49.476;8.484;2022-12-18T01:56:22;48.50;;;22.90;;
12947;SDS011;6539;49.476;8.484;2022-12-18T01:58:53;55.53;;;25.67;;
12947;SDS011;6539;49.476;8.484;2022-12-18T02:01:34;49.73;;;23.97;;
12947;SDS011;6539;49.476;8.484;2022-12-18T02:04:22;46.93;;;23.53;;
12947;SDS011;6539;49.476;8.484;2022-12-18T02:06:54;47.20;;;23.63;;
12947;SDS011;6539;49.476;8.484;2022-12-18T02:10:12;49.50;;;23.93;;
12947;SDS011;6539;49.476;8.484;2022-12-18T02:16:10;46.80;;;23.47;;
12947;SDS011;6539;49.476;8.484;2022-12-18T02:18:56;45.27;;;23.70;;
12947;SDS011;6539;49.476;8.484;2022-12-18T02:21:42;48.00;;;23.30;;
12947;SDS011;6539;49.476;8.484;2022-12-18T02:24:41;50.37;;;23.33;;
12947;SDS011;6539;49.476;8.484;2022-12-18T02:27:24;47.40;;;23.40;;
12947;SDS011;6539;49.476;8.484;2022-12-18T02:29:54;43.17;;;22.83;;
12947;SDS011;6539;49.476;8.484;2022-12-18T02:32:25;51.93;;;24.53;;
12947;SDS011;6539;49.476;8.484;2022-12-18T02:35:01;49.57;;;23.43;;
12947;SDS011;6539;49.476;8.484;2022-12-18T02:37:34;45.97;;;24.17;;
12947;SDS011;6539;49.476;8.484;2022-12-18T02:40:05;42.07;;;22.83;;
12947;SDS011;6539;49.476;8.484;2022-12-18T02:42:33;47.23;;;23.03;;
12947;SDS011;6539;49.476;8.484;2022-12-18T02:44:59;42.57;;;23.30;;
12947;SDS011;6539;49.476;8.484;2022-12-18T02:47:27;43.27;;;22.63;;
12947;SDS011;6539;49.476;8.484;2022-12-18T02:56:29;50.10;;;22.57;;
12947;SDS011;6539;49.476;8.484;2022-12-18T03:04:57;48.90;;;23.53;;
12947;SDS011;6539;49.476;8.484;2022-12-18T03:10:48;52.43;;;23.90;;
12947;SDS011;6539;49.476;8.484;2022-12-18T03:13:31;50.50;;;23.30;;
12947;SDS011;6539;49.476;8.484;2022-12-18T03:16:16;50.17;;;24.27;;
12947;SDS011;6539;49.476;8.484;2022-12-18T03:18:52;52.70;;;25.60;;
12947;SDS011;6539;49.476;8.484;2022-12-18T03:21:43;49.93;;;23.90;;
12947;SDS011;6539;49.476;8.484;2022-12-18T03:24:20;48.93;;;25.03;;
12947;SDS011;6539;49.476;8.484;2022-12-18T03:26:54;54.90;;;25.07;;
12947;SDS011;6539;49.476;8.484;2022-12-18T03:29:37;51.27;;;24.33;;
12947;SDS011;6539;49.476;8.484;2022-12-18T03:32:26;54.50;;;24.47;;
12947;SDS011;6539;49.476;8.484;2022-12-18T03:34:59;55.70;;;26.07;;
12947;SDS011;6539;49.476;8.484;2022-12-18T03:37:30;56.50;;;24.97;;
12947;SDS011;6539;49.476;8.484;2022-12-18T03:39:56;49.90;;;24.53;;
12947;SDS011;6539;49.476;8.484;2022-12-18T03:45:12;53.67;;;25.97;;
12947;SDS011;6539;49.476;8.484;2022-12-18T03:48:06;55.03;;;26.13;;
12947;SDS011;6539;49.476;8.484;2022-12-18T03:50:53;47.83;;;24.53;;
12947;SDS011;6539;49.476;8.484;2022-12-18T03:56:09;48.50;;;22.67;;
12947;SDS011;6539;49.476;8.484;2022-12-18T03:58:39;43.50;;;21.40;;
12947;SDS011;6539;49.476;8.484;2022-12-18T04:01:07;46.30;;;22.20;;
12947;SDS011;6539;49.476;8.484;2022-12-18T04:03:38;43.13;;;21.83;;
12947;SDS011;6539;49.476;8.484;2022-12-18T04:06:11;41.33;;;22.17;;
12947;SDS011;6539;49.476;8.484;2022-12-18T04:08:41;51.63;;;22.23;;
12947;SDS011;6539;49.476;8.484;2022-12-18T04:11:07;43.03;;;22.80;;
12947;SDS011;6539;49.476;8.484;2022-12-18T04:13:36;48.10;;;23.93;;
12947;SDS011;6539;49.476;8.484;2022-12-18T04:16:03;49.07;;;23.97;;
12947;SDS011;6539;49.476;8.484;2022-12-18T04:18:32;48.73;;;22.67;;
12947;SDS011;6539;49.476;8.484;2022-12-18T04:20:57;51.03;;;24.17;;
12947;SDS011;6539;49.476;8.484;2022-12-18T04:23:26;52.90;;;24.17;;
12947;SDS011;6539;49.476;8.484;2022-12-18T04:25:58;51.97;;;24.33;;
12947;SDS011;6539;49.476;8.484;2022-12-18T04:28:24;52.43;;;24.17;;
12947;SDS011;6539;49.476;8.484;2022-12-18T04:30:55;53.83;;;23.93;;
12947;SDS011;6539;49.476;8.484;2022-12-18T04:33:21;53.53;;;25.43;;
12947;SDS011;6539;49.476;8.484;2022-12-18T04:35:47;54.60;;;23.87;;
12947;SDS011;6539;49.476;8.484;2022-12-18T04:38:16;55.87;;;25.10;;
12947;SDS011;6539;49.476;8.484;2022-12-18T04:40:41;52.07;;;24.50;;
12947;SDS011;6539;49.476;8.484;2022-12-18T04:43:10;53.43;;;25.87;;
12947;SDS011;6539;49.476;8.484;2022-12-18T04:45:36;55.23;;;24.60;;
12947;SDS011;6539;49.476;8.484;2022-12-18T04:48:02;55.43;;;25.27;;
12947;SDS011;6539;49.476;8.484;2022-12-18T04:50:31;53.63;;;24.77;;
12947;SDS011;6539;49.476;8.484;2022-12-18T04:52:59;53.07;;;24.97;;
12947;SDS011;6539;49.476;8.484;2022-12-18T04:55:25;50.73;;;25.03;;
12947;SDS011;6539;49.476;8.484;2022-12-18T04:57:54;49.70;;;24.53;;
12947;SDS011;6539;49.476;8.484;2022-12-18T05:00:24;49.30;;;24.03;;
12947;SDS011;6539;49.476;8.484;2022-12-18T05:02:50;48.80;;;23.23;;
12947;SDS011;6539;49.476;8.484;2022-12-18T05:05:22;53.27;;;24.07;;
12947;SDS011;6539;49.476;8.484;2022-12-18T05:07:48;53.53;;;24.50;;
12947;SDS011;6539;49.476;8.484;2022-12-18T05:10:14;45.37;;;23.57;;
12947;SDS011;6539;49.476;8.484;2022-12-18T05:12:40;53.70;;;23.70;;
12947;SDS011;6539;49.476;8.484;2022-12-18T05:15:23;50.60;;;23.77;;
12947;SDS011;6539;49.476;8.484;2022-12-18T05:17:53;49.43;;;21.40;;
12947;SDS011;6539;49.476;8.484;2022-12-18T05:20:19;48.00;;;23.57;;
12947;SDS011;6539;49.476;8.484;2022-12-18T05:22:45;46.50;;;24.17;;
12947;SDS011;6539;49.476;8.484;2022-12-18T05:25:12;46.23;;;22.17;;
12947;SDS011;6539;49.476;8.484;2022-12-18T05:27:40;51.70;;;24.17;;
12947;SDS011;6539;49.476;8.484;2022-12-18T05:30:06;48.47;;;23.13;;
12947;SDS011;6539;49.476;8.484;2022-12-18T05:32:35;51.33;;;22.63;;
12947;SDS011;6539;49.476;8.484;2022-12-18T05:35:02;49.93;;;25.10;;
12947;SDS011;6539;49.476;8.484;2022-12-18T05:37:33;55.90;;;23.30;;
12947;SDS011;6539;49.476;8.484;2022-12-18T05:40:03;46.73;;;24.77;;
12947;SDS011;6539;49.476;8.484;2022-12-18T05:42:32;46.33;;;22.40;;
12947;SDS011;6539;49.476;8.484;2022-12-18T05:45:04;49.07;;;22.40;;
12947;SDS011;6539;49.476;8.484;2022-12-18T05:47:34;48.37;;;23.20;;
12947;SDS011;6539;49.476;8.484;2022-12-18T05:50:02;54.70;;;24.10;;
12947;SDS011;6539;49.476;8.484;2022-12-18T05:52:31;43.03;;;22.27;;
12947;SDS011;6539;49.476;8.484;2022-12-18T05:54:59;51.73;;;24.53;;
12947;SDS011;6539;49.476;8.484;2022-12-18T05:57:24;55.43;;;24.40;;
12947;SDS011;6539;49.476;8.484;2022-12-18T05:59:51;47.23;;;23.23;;
12947;SDS011;6539;49.476;8.484;2022-12-18T06:02:19;49.20;;;23.93;;
12947;SDS011;6539;49.476;8.484;2022-12-18T06:04:47;54.00;;;24.07;;
12947;SDS011;6539;49.476;8.484;2022-12-18T06:07:13;52.93;;;25.00;;
12947;SDS011;6539;49.476;8.484;2022-12-18T06:09:39;51.20;;;24.67;;
12947;SDS011;6539;49.476;8.484;2022-12-18T06:12:05;60.27;;;24.70;;
12947;SDS011;6539;49.476;8.484;2022-12-18T06:14:34;57.80;;;25.47;;
12947;SDS011;6539;49.476;8.484;2022-12-18T06:17:04;51.60;;;23.97;;
12947;SDS011;6539;49.476;8.484;2022-12-18T06:19:35;56.63;;;26.53;;
12947;SDS011;6539;49.476;8.484;2022-12-18T06:22:00;53.37;;;25.63;;
12947;SDS011;6539;49.476;8.484;2022-12-18T06:24:31;54.20;;;25.40;;
12947;SDS011;6539;49.476;8.484;2022-12-18T06:26:58;57.97;;;25.63;;
12947;SDS011;6539;49.476;8.484;2022-12-18T06:29:25;64.43;;;24.83;;
12947;SDS011;6539;49.476;8.484;2022-12-18T06:31:52;56.00;;;26.33;;
12947;SDS011;6539;49.476;8.484;2022-12-18T06:34:18;63.43;;;27.03;;
12947;SDS011;6539;49.476;8.484;2022-12-18T06:36:44;53.20;;;24.50;;
12947;SDS011;6539;49.476;8.484;2022-12-18T06:39:09;53.27;;;26.40;;
12947;SDS011;6539;49.476;8.484;2022-12-18T06:41:37;52.43;;;24.13;;
12947;SDS011;6539;49.476;8.484;2022-12-18T06:44:06;54.50;;;26.40;;
12947;SDS011;6539;49.476;8.484;2022-12-18T06:46:31;50.73;;;24.10;;
12947;SDS011;6539;49.476;8.484;2022-12-18T06:48:57;54.57;;;23.90;;
12947;SDS011;6539;49.476;8.484;2022-12-18T06:51:25;52.03;;;25.07;;
12947;SDS011;6539;49.476;8.484;2022-12-18T06:53:54;52.57;;;24.00;;
12947;SDS011;6539;49.476;8.484;2022-12-18T06:56:24;55.73;;;25.20;;
12947;SDS011;6539;49.476;8.484;2022-12-18T06:58:50;54.50;;;24.93;;
12947;SDS011;6539;49.476;8.484;2022-12-18T07:01:18;50.63;;;24.80;;
12947;SDS011;6539;49.476;8.484;2022-12-18T07:03:44;49.07;;;24.47;;
12947;SDS011;6539;49.476;8.484;2022-12-18T07:06:17;49.63;;;24.17;;
12947;SDS011;6539;49.476;8.484;2022-12-18T07:08:47;52.73;;;25.00;;
12947;SDS011;6539;49.476;8.484;2022-12-18T07:11:15;50.03;;;24.13;;
12947;SDS011;6539;49.476;8.484;2022-12-18T07:13:45;54.63;;;25.93;;
12947;SDS011;6539;49.476;8.484;2022-12-18T07:16:15;47.33;;;23.80;;
12947;SDS011;6539;49.476;8.484;2022-12-18T07:18:44;52.20;;;24.23;;
12947;SDS011;6539;49.476;8.484;2022-12-18T07:21:12;54.53;;;25.17;;
12947;SDS011;6539;49.476;8.484;2022-12-18T07:23:44;52.33;;;24.33;;
12947;SDS011;6539;49.476;8.484;2022-12-18T07:26:15;48.77;;;23.90;;
12947;SDS011;6539;49.476;8.484;2022-12-18T07:28:44;60.20;;;25.30;;
12947;SDS011;6539;49.476;8.484;2022-12-18T07:31:14;57.10;;;26.67;;
12947;SDS011;6539;49.476;8.484;2022-12-18T07:33:46;51.70;;;25.77;;
12947;SDS011;6539;49.476;8.484;2022-12-18T07:36:12;54.63;;;26.77;;
12947;SDS011;6539;49.476;8.484;2022-12-18T07:38:38;56.67;;;25.50;;
12947;SDS011;6539;49.476;8.484;2022-12-18T07:41:05;53.30;;;24.27;;
12947;SDS011;6539;49.476;8.484;2022-12-18T07:43:38;52.63;;;23.10;;
12947;SDS011;6539;49.476;8.484;2022-12-18T07:46:05;49.43;;;24.50;;
12947;SDS011;6539;49.476;8.484;2022-12-18T07:48:34;50.77;;;23.83;;
12947;SDS011;6539;49.476;8.484;2022-12-18T07:51:03;53.63;;;25.70;;
12947;SDS011;6539;49.476;8.484;2022-12-18T07:53:32;44.37;;;21.97;;
12947;SDS011;6539;49.476;8.484;2022-12-18T07:56:03;53.60;;;26.30;;
12947;SDS011;6539;49.476;8.484;2022-12-18T07:58:36;44.40;;;21.33;;
12947;SDS011;6539;49.476;8.484;2022-12-18T08:01:06;43.70;;;23.03;;
12947;SDS011;6539;49.476;8.484;2022-12-18T08:03:34;49.80;;;22.53;;
12947;SDS011;6539;49.476;8.484;2022-12-18T08:06:02;49.70;;;24.10;;
12947;SDS011;6539;49.476;8.484;2022-12-18T08:08:30;53.20;;;25.00;;
12947;SDS011;6539;49.476;8.484;2022-12-18T08:10:56;55.23;;;25.07;;
12947;SDS011;6539;49.476;8.484;2022-12-18T08:13:23;50.73;;;24.37;;
12947;SDS011;6539;49.476;8.484;2022-12-18T08:18:42;44.77;;;22.47;;
12947;SDS011;6539;49.476;8.484;2022-12-18T08:21:10;51.10;;;24.10;;
12947;SDS011;6539;49.476;8.484;2022-12-18T08:23:40;51.07;;;24.20;;
12947;SDS011;6539;49.476;8.484;2022-12-18T08:26:12;57.10;;;25.07;;
12947;SDS011;6539;49.476;8.484;2022-12-18T08:28:39;43.93;;;23.00;;
12947;SDS011;6539;49.476;8.484;2022-12-18T08:31:08;48.00;;;22.57;;
12947;SDS011;6539;49.476;8.484;2022-12-18T08:33:34;48.40;;;22.80;;
12947;SDS011;6539;49.476;8.484;2022-12-18T08:36:01;45.13;;;22.90;;
12947;SDS011;6539;49.476;8.484;2022-12-18T08:38:28;47.17;;;22.07;;
12947;SDS011;6539;49.476;8.484;2022-12-18T08:41:04;43.90;;;22.30;;
12947;SDS011;6539;49.476;8.484;2022-12-18T08:43:35;46.97;;;22.80;;
12947;SDS011;6539;49.476;8.484;2022-12-18T08:46:23;50.73;;;23.07;;
12947;SDS011;6539;49.476;8.484;2022-12-18T08:48:51;48.70;;;23.47;;
12947;SDS011;6539;49.476;8.484;2022-12-18T08:51:20;47.30;;;23.43;;
12947;SDS011;6539;49.476;8.484;2022-12-18T08:53:46;45.63;;;22.73;;
12947;SDS011;6539;49.476;8.484;2022-12-18T08:56:12;46.63;;;23.30;;
12947;SDS011;6539;49.476;8.484;2022-12-18T08:58:41;50.67;;;25.17;;
12947;SDS011;6539;49.476;8.484;2022-12-18T09:01:09;44.73;;;22.50;;
12947;SDS011;6539;49.476;8.484;2022-12-18T09:03:37;47.77;;;23.40;;
12947;SDS011;6539;49.476;8.484;2022-12-18T09:06:06;47.57;;;22.93;;
12947;SDS011;6539;49.476;8.484;2022-12-18T09:08:39;44.43;;;24.03;;
12947;SDS011;6539;49.476;8.484;2022-12-18T09:11:09;50.67;;;24.77;;
12947;SDS011;6539;49.476;8.484;2022-12-18T09:13:55;49.07;;;25.03;;
12947;SDS011;6539;49.476;8.484;2022-12-18T09:16:23;46.63;;;24.07;;
12947;SDS011;6539;49.476;8.484;2022-12-18T09:18:50;47.50;;;25.00;;
12947;SDS011;6539;49.476;8.484;2022-12-18T09:21:19;46.03;;;23.53;;
12947;SDS011;6539;49.476;8.484;2022-12-18T09:23:49;44.70;;;23.53;;
12947;SDS011;6539;49.476;8.484;2022-12-18T09:26:17;41.77;;;22.70;;
12947;SDS011;6539;49.476;8.484;2022-12-18T09:28:43;46.00;;;23.87;;
12947;SDS011;6539;49.476;8.484;2022-12-18T09:31:10;49.80;;;23.70;;
12947;SDS011;6539;49.476;8.484;2022-12-18T09:33:37;46.23;;;23.20;;
12947;SDS011;6539;49.476;8.484;2022-12-18T09:36:04;49.70;;;27.60;;
12947;SDS011;6539;49.476;8.484;2022-12-18T09:38:35;49.70;;;27.52;;
12947;SDS011;6539;49.476;8.484;2022-12-18T09:41:05;41.70;;;23.53;;
12947;SDS011;6539;49.476;8.484;2022-12-18T09:43:51;43.63;;;23.50;;
12947;SDS011;6539;49.476;8.484;2022-12-18T09:46:26;39.93;;;22.17;;
12947;SDS011;6539;49.476;8.484;2022-12-18T09:48:57;45.00;;;23.70;;
12947;SDS011;6539;49.476;8.484;2022-12-18T09:51:37;40.63;;;22.23;;
12947;SDS011;6539;49.476;8.484;2022-12-18T09:54:40;48.27;;;24.47;;
12947;SDS011;6539;49.476;8.484;2022-12-18T09:57:14;45.73;;;23.23;;
12947;SDS011;6539;49.476;8.484;2022-12-18T09:59:44;42.07;;;24.30;;
12947;SDS011;6539;49.476;8.484;2022-12-18T10:02:21;46.17;;;24.27;;
12947;SDS011;6539;49.476;8.484;2022-12-18T10:04:56;43.43;;;24.47;;
12947;SDS011;6539;49.476;8.484;2022-12-18T10:10:27;50.30;;;27.00;;
12947;SDS011;6539;49.476;8.484;2022-12-18T10:16:17;37.90;;;23.30;;
12947;SDS011;6539;49.476;8.484;2022-12-18T10:22:13;36.63;;;20.93;;
12947;SDS011;6539;49.476;8.484;2022-12-18T10:27:42;43.30;;;24.07;;
12947;SDS011;6539;49.476;8.484;2022-12-18T10:30:12;39.40;;;23.43;;
12947;SDS011;6539;49.476;8.484;2022-12-18T10:32:43;38.13;;;23.37;;
12947;SDS011;6539;49.476;8.484;2022-12-18T10:35:24;38.00;;;22.73;;
12947;SDS011;6539;49.476;8.484;2022-12-18T10:38:19;37.80;;;23.03;;
12947;SDS011;6539;49.476;8.484;2022-12-18T10:43:26;36.60;;;21.60;;
12947;SDS011;6539;49.476;8.484;2022-12-18T10:51:19;43.37;;;28.73;;
12947;SDS011;6539;49.476;8.484;2022-12-18T10:54:07;39.17;;;24.10;;
12947;SDS011;6539;49.476;8.484;2022-12-18T10:56:47;36.90;;;23.20;;
12947;SDS011;6539;49.476;8.484;2022-12-18T10:59:18;37.93;;;24.03;;
12947;SDS011;6539;49.476;8.484;2022-12-18T11:04:25;40.13;;;22.30;;
12947;SDS011;6539;49.476;8.484;2022-12-18T11:09:28;41.23;;;23.33;;
12947;SDS011;6539;49.476;8.484;2022-12-18T11:12:08;33.93;;;21.70;;
12947;SDS011;6539;49.476;8.484;2022-12-18T11:17:19;35.37;;;22.47;;
12947;SDS011;6539;49.476;8.484;2022-12-18T11:19:58;38.77;;;22.07;;
12947;SDS011;6539;49.476;8.484;2022-12-18T11:23:05;36.50;;;22.97;;
12947;SDS011;6539;49.476;8.484;2022-12-18T11:25:50;36.33;;;22.87;;
12947;SDS011;6539;49.476;8.484;2022-12-18T11:36:31;41.43;;;22.60;;
12947;SDS011;6539;49.476;8.484;2022-12-18T11:39:09;39.00;;;22.07;;
12947;SDS011;6539;49.476;8.484;2022-12-18T11:44:42;38.07;;;23.50;;
12947;SDS011;6539;49.476;8.484;2022-12-18T11:50:21;35.33;;;22.00;;
12947;SDS011;6539;49.476;8.484;2022-12-18T11:53:13;42.13;;;23.13;;
12947;SDS011;6539;49.476;8.484;2022-12-18T11:56:02;39.13;;;22.57;;
12947;SDS011;6539;49.476;8.484;2022-12-18T11:59:09;42.80;;;23.50;;
12947;SDS011;6539;49.476;8.484;2022-12-18T12:13:40;35.33;;;20.33;;
12947;SDS011;6539;49.476;8.484;2022-12-18T12:25:29;39.43;;;23.33;;
12947;SDS011;6539;49.476;8.484;2022-12-18T12:31:03;42.27;;;22.40;;
12947;SDS011;6539;49.476;8.484;2022-12-18T12:39:39;40.40;;;23.20;;
12947;SDS011;6539;49.476;8.484;2022-12-18T12:42:55;40.60;;;22.17;;
12947;SDS011;6539;49.476;8.484;2022-12-18T12:45:28;49.90;;;26.53;;
12947;SDS011;6539;49.476;8.484;2022-12-18T12:48:07;49.73;;;27.60;;
12947;SDS011;6539;49.476;8.484;2022-12-18T12:50:46;56.33;;;29.73;;
12947;SDS011;6539;49.476;8.484;2022-12-18T12:53:21;51.40;;;28.93;;
12947;SDS011;6539;49.476;8.484;2022-12-18T12:55:57;53.57;;;29.33;;
12947;SDS011;6539;49.476;8.484;2022-12-18T12:58:37;51.30;;;28.83;;
12947;SDS011;6539;49.476;8.484;2022-12-18T13:09:23;51.63;;;29.97;;
12947;SDS011;6539;49.476;8.484;2022-12-18T13:11:51;57.03;;;30.07;;
12947;SDS011;6539;49.476;8.484;2022-12-18T13:14:36;54.90;;;30.33;;
12947;SDS011;6539;49.476;8.484;2022-12-18T13:22:59;124.40;;;62.60;;
12947;SDS011;6539;49.476;8.484;2022-12-18T13:25:28;105.53;;;53.77;;
12947;SDS011;6539;49.476;8.484;2022-12-18T13:28:11;117.40;;;59.90;;
12947;SDS011;6539;49.476;8.484;2022-12-18T13:41:01;58.27;;;29.27;;
12947;SDS011;6539;49.476;8.484;2022-12-18T13:43:47;51.17;;;28.57;;
12947;SDS011;6539;49.476;8.484;2022-12-18T13:46:19;55.57;;;29.33;;
12947;SDS011;6539;49.476;8.484;2022-12-18T13:51:28;47.63;;;27.07;;
12947;SDS011;6539;49.476;8.484;2022-12-18T13:54:01;47.00;;;27.63;;
12947;SDS011;6539;49.476;8.484;2022-12-18T13:56:44;53.10;;;27.60;;
12947;SDS011;6539;49.476;8.484;2022-12-18T14:01:55;48.67;;;28.20;;
12947;SDS011;6539;49.476;8.484;2022-12-18T14:04:30;46.80;;;26.60;;
12947;SDS011;6539;49.476;8.484;2022-12-18T14:09:45;47.43;;;26.73;;
12947;SDS011;6539;49.476;8.484;2022-12-18T14:12:32;47.53;;;26.37;;
12947;SDS011;6539;49.476;8.484;2022-12-18T14:17:55;48.30;;;25.70;;
12947;SDS011;6539;49.476;8.484;2022-12-18T14:20:27;49.10;;;26.87;;
12947;SDS011;6539;49.476;8.484;2022-12-18T14:22:59;47.67;;;25.57;;
12947;SDS011;6539;49.476;8.484;2022-12-18T14:25:28;49.80;;;26.83;;
12947;SDS011;6539;49.476;8.484;2022-12-18T14:30:36;49.53;;;26.10;;
12947;SDS011;6539;49.476;8.484;2022-12-18T14:41:09;41.83;;;23.47;;
12947;SDS011;6539;49.476;8.484;2022-12-18T14:43:44;44.73;;;24.77;;
12947;SDS011;6539;49.476;8.484;2022-12-18T14:46:27;48.23;;;25.30;;
12947;SDS011;6539;49.476;8.484;2022-12-18T14:48:53;46.27;;;25.40;;
12947;SDS011;6539;49.476;8.484;2022-12-18T14:51:24;48.43;;;24.43;;
12947;SDS011;6539;49.476;8.484;2022-12-18T14:53:54;46.90;;;24.67;;
12947;SDS011;6539;49.476;8.484;2022-12-18T14:57:20;47.77;;;24.53;;
12947;SDS011;6539;49.476;8.484;2022-12-18T15:00:07;45.43;;;25.37;;
12947;SDS011;6539;49.476;8.484;2022-12-18T15:02:43;44.13;;;24.87;;
12947;SDS011;6539;49.476;8.484;2022-12-18T15:05:28;44.20;;;25.37;;
12947;SDS011;6539;49.476;8.484;2022-12-18T15:07:59;46.83;;;25.17;;
12947;SDS011;6539;49.476;8.484;2022-12-18T15:10:31;46.67;;;25.07;;
12947;SDS011;6539;49.476;8.484;2022-12-18T15:13:20;45.57;;;26.07;;
12947;SDS011;6539;49.476;8.484;2022-12-18T15:15:51;47.30;;;26.13;;
12947;SDS011;6539;49.476;8.484;2022-12-18T15:18:21;48.63;;;25.73;;
12947;SDS011;6539;49.476;8.484;2022-12-18T15:21:03;48.13;;;26.97;;
12947;SDS011;6539;49.476;8.484;2022-12-18T15:26:16;49.40;;;26.37;;
12947;SDS011;6539;49.476;8.484;2022-12-18T15:28:51;46.13;;;26.00;;
12947;SDS011;6539;49.476;8.484;2022-12-18T15:31:33;47.27;;;25.73;;
12947;SDS011;6539;49.476;8.484;2022-12-18T15:34:09;51.27;;;27.17;;
12947;SDS011;6539;49.476;8.484;2022-12-18T15:36:45;43.67;;;25.80;;
12947;SDS011;6539;49.476;8.484;2022-12-18T15:39:12;46.33;;;24.77;;
12947;SDS011;6539;49.476;8.484;2022-12-18T15:41:40;49.43;;;27.60;;
12947;SDS011;6539;49.476;8.484;2022-12-18T15:44:26;49.20;;;26.17;;
12947;SDS011;6539;49.476;8.484;2022-12-18T15:46:52;48.60;;;26.50;;
12947;SDS011;6539;49.476;8.484;2022-12-18T15:49:20;52.10;;;27.60;;
12947;SDS011;6539;49.476;8.484;2022-12-18T15:51:48;49.87;;;28.20;;
12947;SDS011;6539;49.476;8.484;2022-12-18T15:54:19;52.10;;;28.87;;
12947;SDS011;6539;49.476;8.484;2022-12-18T15:57:08;53.37;;;28.87;;
12947;SDS011;6539;49.476;8.484;2022-12-18T15:59:54;46.67;;;27.93;;
12947;SDS011;6539;49.476;8.484;2022-12-18T16:02:25;55.45;;;35.50;;
12947;SDS011;6539;49.476;8.484;2022-12-18T16:04:51;53.33;;;30.57;;
12947;SDS011;6539;49.476;8.484;2022-12-18T16:07:18;54.77;;;31.57;;
12947;SDS011;6539;49.476;8.484;2022-12-18T16:09:45;48.20;;;28.40;;
12947;SDS011;6539;49.476;8.484;2022-12-18T16:12:18;54.53;;;30.13;;
12947;SDS011;6539;49.476;8.484;2022-12-18T16:14:49;55.77;;;29.83;;
12947;SDS011;6539;49.476;8.484;2022-12-18T16:17:15;50.77;;;30.37;;
12947;SDS011;6539;49.476;8.484;2022-12-18T16:19:41;52.73;;;29.67;;
12947;SDS011;6539;49.476;8.484;2022-12-18T16:22:15;52.93;;;27.70;;
12947;SDS011;6539;49.476;8.484;2022-12-18T16:24:51;48.30;;;28.07;;
12947;SDS011;6539;49.476;8.484;2022-12-18T16:27:20;52.17;;;27.73;;
12947;SDS011;6539;49.476;8.484;2022-12-18T16:29:47;47.40;;;28.20;;
12947;SDS011;6539;49.476;8.484;2022-12-18T16:32:18;54.07;;;28.00;;
12947;SDS011;6539;49.476;8.484;2022-12-18T16:34:46;50.40;;;28.70;;
12947;SDS011;6539;49.476;8.484;2022-12-18T16:37:13;53.67;;;29.70;;
12947;SDS011;6539;49.476;8.484;2022-12-18T16:39:45;52.00;;;28.87;;
12947;SDS011;6539;49.476;8.484;2022-12-18T16:42:14;52.67;;;30.00;;
12947;SDS011;6539;49.476;8.484;2022-12-18T16:44:45;51.60;;;30.00;;
12947;SDS011;6539;49.476;8.484;2022-12-18T16:47:14;48.20;;;29.20;;
12947;SDS011;6539;49.476;8.484;2022-12-18T16:49:45;52.17;;;29.17;;
12947;SDS011;6539;49.476;8.484;2022-12-18T16:52:15;50.47;;;28.67;;
12947;SDS011;6539;49.476;8.484;2022-12-18T16:54:43;51.43;;;30.53;;
12947;SDS011;6539;49.476;8.484;2022-12-18T16:57:13;50.07;;;29.83;;
12947;SDS011;6539;49.476;8.484;2022-12-18T16:59:44;51.40;;;29.73;;
12947;SDS011;6539;49.476;8.484;2022-12-18T17:02:15;57.43;;;32.40;;
12947;SDS011;6539;49.476;8.484;2022-12-18T17:04:54;51.70;;;32.97;;
12947;SDS011;6539;49.476;8.484;2022-12-18T17:07:24;52.23;;;32.13;;
12947;SDS011;6539;49.476;8.484;2022-12-18T17:09:52;55.73;;;31.70;;
12947;SDS011;6539;49.476;8.484;2022-12-18T17:12:21;50.77;;;29.80;;
12947;SDS011;6539;49.476;8.484;2022-12-18T17:14:50;54.90;;;31.27;;
12947;SDS011;6539;49.476;8.484;2022-12-18T17:17:16;53.67;;;29.67;;
12947;SDS011;6539;49.476;8.484;2022-12-18T17:19:42;54.00;;;30.83;;
12947;SDS011;6539;49.476;8.484;2022-12-18T17:22:08;52.23;;;30.40;;
12947;SDS011;6539;49.476;8.484;2022-12-18T17:24:34;51.67;;;29.90;;
12947;SDS011;6539;49.476;8.484;2022-12-18T17:27:00;51.93;;;29.00;;
12947;SDS011;6539;49.476;8.484;2022-12-18T17:29:26;54.17;;;30.23;;
12947;SDS011;6539;49.476;8.484;2022-12-18T17:31:54;58.30;;;30.93;;
12947;SDS011;6539;49.476;8.484;2022-12-18T17:34:20;51.03;;;30.47;;